sensor_id;sensor_type;location;lat;lon;timestamp;P1;durP1;ratioP1;P2;durP2;ratioP2
3417;SDS011;68007;51.312;12.372;2024-02-21T00:02:14;9.33;;;3.30;;
3417;SDS011;68007;51.312;12.372;2024-02-21T00:04:43;16.80;;;3.57;;
3417;SDS011;68007;51.312;12.372;2024-02-21T00:07:10;9.60;;;3.27;;
3417;SDS011;68007;51.312;12.372;2024-02-21T00:09:38;12.57;;;3.07;;
3417;SDS011;68007;51.312;12.372;2024-02-21T00:12:07;6.93;;;2.40;;
3417;SDS011;68007;51.312;12.372;2024-02-21T00:14:35;11.80;;;3.30;;
3417;SDS011;68007;51.312;12.372;2024-02-21T00:17:02;11.27;;;2.80;;
3417;SDS011;68007;51.312;12.372;2024-02-21T00:19:30;13.93;;;3.00;;
3417;SDS011;68007;51.312;12.372;2024-02-21T00:21:57;11.33;;;3.07;;
3417;SDS011;68007;51.312;12.372;2024-02-21T00:24:25;9.90;;;3.00;;
3417;SDS011;68007;51.312;12.372;2024-02-21T00:26:53;8.80;;;3.43;;
3417;SDS011;68007;51.312;12.372;2024-02-21T00:29:22;16.43;;;3.60;;
3417;SDS011;68007;51.312;12.372;2024-02-21T00:31:49;6.60;;;2.90;;
3417;SDS011;68007;51.312;12.372;2024-02-21T00:34:17;10.07;;;3.40;;
3417;SDS011;68007;51.312;12.372;2024-02-21T00:36:44;8.77;;;3.60;;
3417;SDS011;68007;51.312;12.372;2024-02-21T00:39:12;17.83;;;3.90;;
3417;SDS011;68007;51.312;12.372;2024-02-21T00:41:39;12.07;;;3.00;;
3417;SDS011;68007;51.312;12.372;2024-02-21T00:44:07;8.07;;;2.80;;
3417;SDS011;68007;51.312;12.372;2024-02-21T00:46:37;6.13;;;3.03;;
3417;SDS011;68007;51.312;12.372;2024-02-21T00:49:04;10.67;;;3.27;;
3417;SDS011;68007;51.312;12.372;2024-02-21T00:51:32;12.70;;;3.50;;
3417;SDS011;68007;51.312;12.372;2024-02-21T00:54:00;9.83;;;3.27;;
3417;SDS011;68007;51.312;12.372;2024-02-21T00:56:28;10.30;;;3.33;;
3417;SDS011;68007;51.312;12.372;2024-02-21T00:58:56;10.43;;;2.97;;
3417;SDS011;68007;51.312;12.372;2024-02-21T01:01:24;12.03;;;3.30;;
3417;SDS011;68007;51.312;12.372;2024-02-21T01:03:53;11.53;;;3.43;;
3417;SDS011;68007;51.312;12.372;2024-02-21T01:06:21;9.30;;;2.80;;
3417;SDS011;68007;51.312;12.372;2024-02-21T01:08:49;12.63;;;2.87;;
3417;SDS011;68007;51.312;12.372;2024-02-21T01:11:16;14.00;;;4.13;;
3417;SDS011;68007;51.312;12.372;2024-02-21T01:13:44;11.17;;;2.73;;
3417;SDS011;68007;51.312;12.372;2024-02-21T01:16:12;10.67;;;2.97;;
3417;SDS011;68007;51.312;12.372;2024-02-21T01:18:39;11.33;;;3.10;;
3417;SDS011;68007;51.312;12.372;2024-02-21T01:21:08;14.93;;;3.77;;
3417;SDS011;68007;51.312;12.372;2024-02-21T01:23:36;13.97;;;3.17;;
3417;SDS011;68007;51.312;12.372;2024-02-21T01:26:04;8.23;;;3.50;;
3417;SDS011;68007;51.312;12.372;2024-02-21T01:28:34;13.20;;;3.63;;
3417;SDS011;68007;51.312;12.372;2024-02-21T01:31:01;9.27;;;3.00;;
3417;SDS011;68007;51.312;12.372;2024-02-21T01:33:29;10.50;;;3.33;;
3417;SDS011;68007;51.312;12.372;2024-02-21T01:36:00;14.90;;;3.20;;
3417;SDS011;68007;51.312;12.372;2024-02-21T01:38:29;8.60;;;2.90;;
3417;SDS011;68007;51.312;12.372;2024-02-21T01:40:57;17.00;;;3.63;;
3417;SDS011;68007;51.312;12.372;2024-02-21T01:43:25;7.00;;;2.80;;
3417;SDS011;68007;51.312;12.372;2024-02-21T01:45:54;10.37;;;3.50;;
3417;SDS011;68007;51.312;12.372;2024-02-21T01:48:22;10.67;;;3.80;;
3417;SDS011;68007;51.312;12.372;2024-02-21T01:50:51;10.10;;;2.70;;
3417;SDS011;68007;51.312;12.372;2024-02-21T01:53:21;11.60;;;3.37;;
3417;SDS011;68007;51.312;12.372;2024-02-21T01:55:53;8.50;;;3.00;;
3417;SDS011;68007;51.312;12.372;2024-02-21T01:58:21;17.10;;;3.83;;
3417;SDS011;68007;51.312;12.372;2024-02-21T02:00:49;9.73;;;3.30;;
3417;SDS011;68007;51.312;12.372;2024-02-21T02:03:17;6.83;;;2.73;;
3417;SDS011;68007;51.312;12.372;2024-02-21T02:05:45;12.40;;;2.63;;
3417;SDS011;68007;51.312;12.372;2024-02-21T02:08:14;12.50;;;3.03;;
3417;SDS011;68007;51.312;12.372;2024-02-21T02:10:42;8.67;;;3.07;;
3417;SDS011;68007;51.312;12.372;2024-02-21T02:13:11;9.67;;;3.50;;
3417;SDS011;68007;51.312;12.372;2024-02-21T02:15:39;7.73;;;2.60;;
3417;SDS011;68007;51.312;12.372;2024-02-21T02:18:07;7.10;;;2.80;;
3417;SDS011;68007;51.312;12.372;2024-02-21T02:20:35;11.20;;;3.70;;
3417;SDS011;68007;51.312;12.372;2024-02-21T02:23:04;13.10;;;2.80;;
3417;SDS011;68007;51.312;12.372;2024-02-21T02:25:38;8.80;;;3.23;;
3417;SDS011;68007;51.312;12.372;2024-02-21T02:28:06;10.13;;;3.40;;
3417;SDS011;68007;51.312;12.372;2024-02-21T02:30:34;9.60;;;3.33;;
3417;SDS011;68007;51.312;12.372;2024-02-21T02:33:03;12.97;;;3.47;;
3417;SDS011;68007;51.312;12.372;2024-02-21T02:35:31;15.43;;;4.03;;
3417;SDS011;68007;51.312;12.372;2024-02-21T02:38:01;16.57;;;3.30;;
3417;SDS011;68007;51.312;12.372;2024-02-21T02:40:29;13.57;;;3.63;;
3417;SDS011;68007;51.312;12.372;2024-02-21T02:42:57;16.70;;;4.10;;
3417;SDS011;68007;51.312;12.372;2024-02-21T02:45:25;17.77;;;3.47;;
3417;SDS011;68007;51.312;12.372;2024-02-21T02:47:53;13.07;;;3.50;;
3417;SDS011;68007;51.312;12.372;2024-02-21T02:50:22;13.63;;;3.23;;
3417;SDS011;68007;51.312;12.372;2024-02-21T02:52:50;12.23;;;3.77;;
3417;SDS011;68007;51.312;12.372;2024-02-21T02:55:17;8.20;;;2.67;;
3417;SDS011;68007;51.312;12.372;2024-02-21T02:57:45;11.40;;;3.70;;
3417;SDS011;68007;51.312;12.372;2024-02-21T03:00:14;15.20;;;3.73;;
3417;SDS011;68007;51.312;12.372;2024-02-21T03:02:43;12.97;;;3.63;;
3417;SDS011;68007;51.312;12.372;2024-02-21T03:05:12;11.80;;;4.07;;
3417;SDS011;68007;51.312;12.372;2024-02-21T03:07:41;25.17;;;4.60;;
3417;SDS011;68007;51.312;12.372;2024-02-21T03:10:09;12.90;;;3.30;;
3417;SDS011;68007;51.312;12.372;2024-02-21T03:12:37;9.93;;;3.10;;
3417;SDS011;68007;51.312;12.372;2024-02-21T03:15:05;12.03;;;2.90;;
3417;SDS011;68007;51.312;12.372;2024-02-21T03:17:35;8.23;;;2.67;;
3417;SDS011;68007;51.312;12.372;2024-02-21T03:20:02;11.73;;;3.10;;
3417;SDS011;68007;51.312;12.372;2024-02-21T03:22:33;17.87;;;3.73;;
3417;SDS011;68007;51.312;12.372;2024-02-21T03:25:01;11.27;;;3.20;;
3417;SDS011;68007;51.312;12.372;2024-02-21T03:27:28;13.03;;;3.57;;
3417;SDS011;68007;51.312;12.372;2024-02-21T03:29:56;13.67;;;3.53;;
3417;SDS011;68007;51.312;12.372;2024-02-21T03:32:23;13.00;;;3.30;;
3417;SDS011;68007;51.312;12.372;2024-02-21T03:34:52;12.97;;;3.47;;
3417;SDS011;68007;51.312;12.372;2024-02-21T03:37:20;7.90;;;2.97;;
3417;SDS011;68007;51.312;12.372;2024-02-21T03:39:48;9.43;;;3.13;;
3417;SDS011;68007;51.312;12.372;2024-02-21T03:42:15;12.50;;;3.20;;
3417;SDS011;68007;51.312;12.372;2024-02-21T03:44:43;11.93;;;3.93;;
3417;SDS011;68007;51.312;12.372;2024-02-21T03:47:10;10.70;;;2.90;;
3417;SDS011;68007;51.312;12.372;2024-02-21T03:49:38;5.50;;;3.00;;
3417;SDS011;68007;51.312;12.372;2024-02-21T03:52:07;9.00;;;2.80;;
3417;SDS011;68007;51.312;12.372;2024-02-21T03:54:34;17.33;;;3.63;;
3417;SDS011;68007;51.312;12.372;2024-02-21T03:57:02;15.30;;;4.23;;
3417;SDS011;68007;51.312;12.372;2024-02-21T03:59:31;7.57;;;2.77;;
3417;SDS011;68007;51.312;12.372;2024-02-21T04:01:59;11.80;;;4.00;;
3417;SDS011;68007;51.312;12.372;2024-02-21T04:04:26;13.83;;;3.70;;
3417;SDS011;68007;51.312;12.372;2024-02-21T04:06:54;12.57;;;3.50;;
3417;SDS011;68007;51.312;12.372;2024-02-21T04:09:23;10.20;;;2.97;;
3417;SDS011;68007;51.312;12.372;2024-02-21T04:11:50;13.43;;;3.10;;
3417;SDS011;68007;51.312;12.372;2024-02-21T04:14:17;10.00;;;3.70;;
3417;SDS011;68007;51.312;12.372;2024-02-21T04:16:45;9.63;;;3.83;;
3417;SDS011;68007;51.312;12.372;2024-02-21T04:19:12;11.67;;;3.40;;
3417;SDS011;68007;51.312;12.372;2024-02-21T04:21:40;10.77;;;3.37;;
3417;SDS011;68007;51.312;12.372;2024-02-21T04:24:07;12.67;;;3.60;;
3417;SDS011;68007;51.312;12.372;2024-02-21T04:26:36;16.00;;;3.70;;
3417;SDS011;68007;51.312;12.372;2024-02-21T04:29:04;12.10;;;3.33;;
3417;SDS011;68007;51.312;12.372;2024-02-21T04:31:32;9.77;;;3.50;;
3417;SDS011;68007;51.312;12.372;2024-02-21T04:34:00;13.77;;;4.03;;
3417;SDS011;68007;51.312;12.372;2024-02-21T04:36:28;13.27;;;4.00;;
3417;SDS011;68007;51.312;12.372;2024-02-21T04:38:56;8.30;;;3.63;;
3417;SDS011;68007;51.312;12.372;2024-02-21T04:41:23;12.63;;;3.57;;
3417;SDS011;68007;51.312;12.372;2024-02-21T04:43:52;11.57;;;3.87;;
3417;SDS011;68007;51.312;12.372;2024-02-21T04:46:20;12.27;;;3.67;;
3417;SDS011;68007;51.312;12.372;2024-02-21T04:48:47;15.83;;;4.20;;
3417;SDS011;68007;51.312;12.372;2024-02-21T04:51:15;10.20;;;3.90;;
3417;SDS011;68007;51.312;12.372;2024-02-21T04:53:42;8.27;;;3.20;;
3417;SDS011;68007;51.312;12.372;2024-02-21T04:56:10;12.33;;;3.93;;
3417;SDS011;68007;51.312;12.372;2024-02-21T04:58:38;12.97;;;3.83;;
3417;SDS011;68007;51.312;12.372;2024-02-21T05:01:07;9.50;;;3.33;;
3417;SDS011;68007;51.312;12.372;2024-02-21T05:03:34;11.20;;;3.57;;
3417;SDS011;68007;51.312;12.372;2024-02-21T05:06:02;14.77;;;4.37;;
3417;SDS011;68007;51.312;12.372;2024-02-21T05:08:30;9.17;;;3.23;;
3417;SDS011;68007;51.312;12.372;2024-02-21T05:10:57;13.33;;;3.60;;
3417;SDS011;68007;51.312;12.372;2024-02-21T05:13:25;9.80;;;3.53;;
3417;SDS011;68007;51.312;12.372;2024-02-21T05:15:52;12.93;;;3.63;;
3417;SDS011;68007;51.312;12.372;2024-02-21T05:18:21;6.47;;;2.93;;
3417;SDS011;68007;51.312;12.372;2024-02-21T05:20:49;8.90;;;3.40;;
3417;SDS011;68007;51.312;12.372;2024-02-21T05:23:16;6.43;;;2.50;;
3417;SDS011;68007;51.312;12.372;2024-02-21T05:25:44;12.70;;;3.77;;
3417;SDS011;68007;51.312;12.372;2024-02-21T05:28:11;8.63;;;3.27;;
3417;SDS011;68007;51.312;12.372;2024-02-21T05:30:39;11.27;;;3.70;;
3417;SDS011;68007;51.312;12.372;2024-02-21T05:33:07;12.60;;;3.17;;
3417;SDS011;68007;51.312;12.372;2024-02-21T05:35:36;10.90;;;3.57;;
3417;SDS011;68007;51.312;12.372;2024-02-21T05:38:03;13.97;;;3.60;;
3417;SDS011;68007;51.312;12.372;2024-02-21T05:40:37;17.23;;;3.70;;
3417;SDS011;68007;51.312;12.372;2024-02-21T05:43:04;9.10;;;2.77;;
3417;SDS011;68007;51.312;12.372;2024-02-21T05:45:32;7.93;;;3.37;;
3417;SDS011;68007;51.312;12.372;2024-02-21T05:47:59;12.10;;;3.60;;
3417;SDS011;68007;51.312;12.372;2024-02-21T05:50:28;9.40;;;3.60;;
3417;SDS011;68007;51.312;12.372;2024-02-21T05:52:57;10.57;;;2.90;;
3417;SDS011;68007;51.312;12.372;2024-02-21T05:55:24;6.83;;;3.70;;
3417;SDS011;68007;51.312;12.372;2024-02-21T05:57:53;8.67;;;3.40;;
3417;SDS011;68007;51.312;12.372;2024-02-21T06:00:21;10.20;;;3.57;;
3417;SDS011;68007;51.312;12.372;2024-02-21T06:02:49;8.80;;;3.70;;
3417;SDS011;68007;51.312;12.372;2024-02-21T06:05:16;21.03;;;3.73;;
3417;SDS011;68007;51.312;12.372;2024-02-21T06:07:44;12.23;;;3.67;;
3417;SDS011;68007;51.312;12.372;2024-02-21T06:10:13;7.20;;;3.30;;
3417;SDS011;68007;51.312;12.372;2024-02-21T06:12:40;10.97;;;3.93;;
3417;SDS011;68007;51.312;12.372;2024-02-21T06:15:08;11.87;;;3.60;;
3417;SDS011;68007;51.312;12.372;2024-02-21T06:17:36;11.03;;;3.97;;
3417;SDS011;68007;51.312;12.372;2024-02-21T06:20:04;6.73;;;3.03;;
3417;SDS011;68007;51.312;12.372;2024-02-21T06:22:32;14.07;;;4.83;;
3417;SDS011;68007;51.312;12.372;2024-02-21T06:24:59;8.60;;;3.87;;
3417;SDS011;68007;51.312;12.372;2024-02-21T06:27:29;10.80;;;4.00;;
3417;SDS011;68007;51.312;12.372;2024-02-21T06:29:56;11.90;;;3.80;;
3417;SDS011;68007;51.312;12.372;2024-02-21T06:32:24;12.40;;;3.50;;
3417;SDS011;68007;51.312;12.372;2024-02-21T06:34:51;10.33;;;3.23;;
3417;SDS011;68007;51.312;12.372;2024-02-21T06:37:19;12.20;;;4.87;;
3417;SDS011;68007;51.312;12.372;2024-02-21T06:39:46;15.13;;;3.80;;
3417;SDS011;68007;51.312;12.372;2024-02-21T06:42:14;12.73;;;3.73;;
3417;SDS011;68007;51.312;12.372;2024-02-21T06:44:43;11.87;;;4.60;;
3417;SDS011;68007;51.312;12.372;2024-02-21T06:47:11;13.93;;;4.13;;
3417;SDS011;68007;51.312;12.372;2024-02-21T06:49:38;7.50;;;4.00;;
3417;SDS011;68007;51.312;12.372;2024-02-21T06:52:07;16.87;;;3.50;;
3417;SDS011;68007;51.312;12.372;2024-02-21T06:54:34;11.00;;;3.10;;
3417;SDS011;68007;51.312;12.372;2024-02-21T06:57:02;9.03;;;3.20;;
3417;SDS011;68007;51.312;12.372;2024-02-21T06:59:30;6.87;;;3.20;;
3417;SDS011;68007;51.312;12.372;2024-02-21T07:01:59;11.67;;;3.33;;
3417;SDS011;68007;51.312;12.372;2024-02-21T07:04:26;11.77;;;3.80;;
3417;SDS011;68007;51.312;12.372;2024-02-21T07:06:55;7.90;;;3.30;;
3417;SDS011;68007;51.312;12.372;2024-02-21T07:09:22;11.80;;;3.40;;
3417;SDS011;68007;51.312;12.372;2024-02-21T07:11:50;10.37;;;3.50;;
3417;SDS011;68007;51.312;12.372;2024-02-21T07:14:18;9.90;;;3.80;;
3417;SDS011;68007;51.312;12.372;2024-02-21T07:16:45;12.80;;;3.90;;
3417;SDS011;68007;51.312;12.372;2024-02-21T07:19:14;14.80;;;3.90;;
3417;SDS011;68007;51.312;12.372;2024-02-21T07:21:42;11.17;;;3.50;;
3417;SDS011;68007;51.312;12.372;2024-02-21T07:24:09;12.40;;;4.33;;
3417;SDS011;68007;51.312;12.372;2024-02-21T07:26:40;7.13;;;3.23;;
3417;SDS011;68007;51.312;12.372;2024-02-21T07:29:10;13.40;;;4.33;;
3417;SDS011;68007;51.312;12.372;2024-02-21T07:31:40;9.17;;;3.60;;
3417;SDS011;68007;51.312;12.372;2024-02-21T07:34:08;9.20;;;4.13;;
3417;SDS011;68007;51.312;12.372;2024-02-21T07:36:37;8.07;;;4.10;;
3417;SDS011;68007;51.312;12.372;2024-02-21T07:39:04;13.53;;;3.77;;
3417;SDS011;68007;51.312;12.372;2024-02-21T07:41:32;11.17;;;3.90;;
3417;SDS011;68007;51.312;12.372;2024-02-21T07:44:00;7.83;;;3.97;;
3417;SDS011;68007;51.312;12.372;2024-02-21T07:46:29;10.33;;;4.27;;
3417;SDS011;68007;51.312;12.372;2024-02-21T07:48:56;11.77;;;4.43;;
3417;SDS011;68007;51.312;12.372;2024-02-21T07:51:27;7.60;;;3.70;;
3417;SDS011;68007;51.312;12.372;2024-02-21T07:53:56;10.57;;;4.70;;
3417;SDS011;68007;51.312;12.372;2024-02-21T07:56:23;8.93;;;4.83;;
3417;SDS011;68007;51.312;12.372;2024-02-21T07:58:55;13.73;;;4.03;;
3417;SDS011;68007;51.312;12.372;2024-02-21T08:01:22;12.80;;;4.80;;
3417;SDS011;68007;51.312;12.372;2024-02-21T08:03:50;12.27;;;4.20;;
3417;SDS011;68007;51.312;12.372;2024-02-21T08:06:17;14.87;;;5.97;;
3417;SDS011;68007;51.312;12.372;2024-02-21T08:08:45;8.43;;;4.37;;
3417;SDS011;68007;51.312;12.372;2024-02-21T08:11:14;11.93;;;5.20;;
3417;SDS011;68007;51.312;12.372;2024-02-21T08:13:41;8.33;;;4.30;;
3417;SDS011;68007;51.312;12.372;2024-02-21T08:16:09;10.57;;;4.50;;
3417;SDS011;68007;51.312;12.372;2024-02-21T08:18:36;11.40;;;5.23;;
3417;SDS011;68007;51.312;12.372;2024-02-21T08:21:04;15.73;;;6.17;;
3417;SDS011;68007;51.312;12.372;2024-02-21T08:23:32;7.97;;;4.93;;
3417;SDS011;68007;51.312;12.372;2024-02-21T08:26:02;10.57;;;4.60;;
3417;SDS011;68007;51.312;12.372;2024-02-21T08:28:31;11.00;;;4.90;;
3417;SDS011;68007;51.312;12.372;2024-02-21T08:30:59;12.53;;;5.27;;
3417;SDS011;68007;51.312;12.372;2024-02-21T08:33:27;12.10;;;4.87;;
3417;SDS011;68007;51.312;12.372;2024-02-21T08:35:55;14.40;;;5.90;;
3417;SDS011;68007;51.312;12.372;2024-02-21T08:38:23;12.50;;;4.20;;
3417;SDS011;68007;51.312;12.372;2024-02-21T08:40:50;17.03;;;5.60;;
3417;SDS011;68007;51.312;12.372;2024-02-21T08:43:18;12.63;;;5.43;;
3417;SDS011;68007;51.312;12.372;2024-02-21T08:45:47;12.17;;;4.50;;
3417;SDS011;68007;51.312;12.372;2024-02-21T08:48:14;12.20;;;4.57;;
3417;SDS011;68007;51.312;12.372;2024-02-21T08:50:42;16.57;;;5.00;;
3417;SDS011;68007;51.312;12.372;2024-02-21T08:53:09;8.77;;;4.30;;
3417;SDS011;68007;51.312;12.372;2024-02-21T08:55:37;16.93;;;5.13;;
3417;SDS011;68007;51.312;12.372;2024-02-21T08:58:04;16.63;;;6.90;;
3417;SDS011;68007;51.312;12.372;2024-02-21T09:00:32;12.67;;;4.67;;
3417;SDS011;68007;51.312;12.372;2024-02-21T09:03:01;13.23;;;4.80;;
3417;SDS011;68007;51.312;12.372;2024-02-21T09:05:29;14.10;;;5.10;;
3417;SDS011;68007;51.312;12.372;2024-02-21T09:07:56;15.47;;;6.63;;
3417;SDS011;68007;51.312;12.372;2024-02-21T09:10:24;18.50;;;5.20;;
3417;SDS011;68007;51.312;12.372;2024-02-21T09:12:51;17.07;;;5.43;;
3417;SDS011;68007;51.312;12.372;2024-02-21T09:15:19;13.13;;;5.90;;
3417;SDS011;68007;51.312;12.372;2024-02-21T09:17:46;12.13;;;4.50;;
3417;SDS011;68007;51.312;12.372;2024-02-21T09:20:15;15.70;;;6.07;;
3417;SDS011;68007;51.312;12.372;2024-02-21T09:22:43;14.60;;;5.20;;
3417;SDS011;68007;51.312;12.372;2024-02-21T09:25:11;9.90;;;4.87;;
3417;SDS011;68007;51.312;12.372;2024-02-21T09:27:39;10.77;;;4.87;;
3417;SDS011;68007;51.312;12.372;2024-02-21T09:30:06;8.10;;;4.50;;
3417;SDS011;68007;51.312;12.372;2024-02-21T09:32:34;12.47;;;5.57;;
3417;SDS011;68007;51.312;12.372;2024-02-21T09:35:02;12.13;;;6.10;;
3417;SDS011;68007;51.312;12.372;2024-02-21T09:37:32;10.40;;;4.97;;
3417;SDS011;68007;51.312;12.372;2024-02-21T09:39:59;13.87;;;6.43;;
3417;SDS011;68007;51.312;12.372;2024-02-21T09:42:29;12.40;;;5.17;;
3417;SDS011;68007;51.312;12.372;2024-02-21T09:45:03;9.73;;;5.47;;
3417;SDS011;68007;51.312;12.372;2024-02-21T09:47:39;9.77;;;4.83;;
3417;SDS011;68007;51.312;12.372;2024-02-21T09:50:17;15.70;;;5.40;;
3417;SDS011;68007;51.312;12.372;2024-02-21T09:52:48;11.57;;;5.10;;
3417;SDS011;68007;51.312;12.372;2024-02-21T09:55:16;15.40;;;5.17;;
3417;SDS011;68007;51.312;12.372;2024-02-21T09:57:45;9.30;;;4.77;;
3417;SDS011;68007;51.312;12.372;2024-02-21T10:00:13;12.30;;;4.70;;
3417;SDS011;68007;51.312;12.372;2024-02-21T10:02:47;12.27;;;5.17;;
3417;SDS011;68007;51.312;12.372;2024-02-21T10:05:15;10.67;;;4.47;;
3417;SDS011;68007;51.312;12.372;2024-02-21T10:07:44;14.37;;;5.13;;
3417;SDS011;68007;51.312;12.372;2024-02-21T10:10:13;10.80;;;4.63;;
3417;SDS011;68007;51.312;12.372;2024-02-21T10:12:48;20.57;;;5.10;;
3417;SDS011;68007;51.312;12.372;2024-02-21T10:15:19;10.93;;;4.97;;
3417;SDS011;68007;51.312;12.372;2024-02-21T10:17:48;10.13;;;4.80;;
3417;SDS011;68007;51.312;12.372;2024-02-21T10:20:16;14.03;;;5.63;;
3417;SDS011;68007;51.312;12.372;2024-02-21T10:22:43;11.30;;;4.67;;
3417;SDS011;68007;51.312;12.372;2024-02-21T10:25:12;10.80;;;5.10;;
3417;SDS011;68007;51.312;12.372;2024-02-21T10:27:40;12.57;;;4.40;;
3417;SDS011;68007;51.312;12.372;2024-02-21T10:30:12;15.23;;;5.10;;
3417;SDS011;68007;51.312;12.372;2024-02-21T10:32:48;14.03;;;5.10;;
3417;SDS011;68007;51.312;12.372;2024-02-21T10:35:25;16.00;;;4.70;;
3417;SDS011;68007;51.312;12.372;2024-02-21T10:37:53;10.17;;;4.20;;
3417;SDS011;68007;51.312;12.372;2024-02-21T10:40:24;9.03;;;4.27;;
3417;SDS011;68007;51.312;12.372;2024-02-21T10:42:57;11.80;;;3.73;;
3417;SDS011;68007;51.312;12.372;2024-02-21T10:45:28;9.93;;;4.33;;
3417;SDS011;68007;51.312;12.372;2024-02-21T10:48:02;12.83;;;4.17;;
3417;SDS011;68007;51.312;12.372;2024-02-21T10:50:36;6.97;;;3.53;;
3417;SDS011;68007;51.312;12.372;2024-02-21T10:53:17;6.63;;;3.40;;
3417;SDS011;68007;51.312;12.372;2024-02-21T10:55:56;7.80;;;3.63;;
3417;SDS011;68007;51.312;12.372;2024-02-21T10:58:28;10.47;;;3.87;;
3417;SDS011;68007;51.312;12.372;2024-02-21T11:00:57;12.63;;;3.97;;
3417;SDS011;68007;51.312;12.372;2024-02-21T11:03:24;9.70;;;3.30;;
3417;SDS011;68007;51.312;12.372;2024-02-21T11:05:52;9.57;;;3.90;;
3417;SDS011;68007;51.312;12.372;2024-02-21T11:08:20;8.37;;;3.40;;
3417;SDS011;68007;51.312;12.372;2024-02-21T11:10:48;13.27;;;4.07;;
3417;SDS011;68007;51.312;12.372;2024-02-21T11:13:16;8.03;;;4.30;;
3417;SDS011;68007;51.312;12.372;2024-02-21T11:15:44;8.47;;;4.47;;
3417;SDS011;68007;51.312;12.372;2024-02-21T11:18:22;11.17;;;4.13;;
3417;SDS011;68007;51.312;12.372;2024-02-21T11:20:50;5.67;;;3.43;;
3417;SDS011;68007;51.312;12.372;2024-02-21T11:23:23;11.10;;;3.73;;
3417;SDS011;68007;51.312;12.372;2024-02-21T11:25:52;6.97;;;3.50;;
3417;SDS011;68007;51.312;12.372;2024-02-21T11:28:26;8.70;;;4.00;;
3417;SDS011;68007;51.312;12.372;2024-02-21T11:31:04;9.70;;;4.17;;
3417;SDS011;68007;51.312;12.372;2024-02-21T11:33:35;5.70;;;3.13;;
3417;SDS011;68007;51.312;12.372;2024-02-21T11:36:06;7.13;;;3.67;;
3417;SDS011;68007;51.312;12.372;2024-02-21T11:38:33;5.37;;;3.20;;
3417;SDS011;68007;51.312;12.372;2024-02-21T11:41:01;8.30;;;3.33;;
3417;SDS011;68007;51.312;12.372;2024-02-21T11:43:30;7.50;;;2.70;;
3417;SDS011;68007;51.312;12.372;2024-02-21T11:45:58;5.07;;;2.63;;
3417;SDS011;68007;51.312;12.372;2024-02-21T11:48:29;10.20;;;3.27;;
3417;SDS011;68007;51.312;12.372;2024-02-21T11:50:57;6.80;;;3.40;;
3417;SDS011;68007;51.312;12.372;2024-02-21T11:53:26;6.33;;;2.97;;
3417;SDS011;68007;51.312;12.372;2024-02-21T11:55:56;7.37;;;3.23;;
3417;SDS011;68007;51.312;12.372;2024-02-21T11:58:24;5.43;;;2.80;;
3417;SDS011;68007;51.312;12.372;2024-02-21T12:00:53;8.63;;;3.10;;
3417;SDS011;68007;51.312;12.372;2024-02-21T12:03:20;4.90;;;2.80;;
3417;SDS011;68007;51.312;12.372;2024-02-21T12:05:48;3.60;;;2.10;;
3417;SDS011;68007;51.312;12.372;2024-02-21T12:08:16;3.70;;;2.20;;
3417;SDS011;68007;51.312;12.372;2024-02-21T12:10:44;6.43;;;2.50;;
3417;SDS011;68007;51.312;12.372;2024-02-21T12:13:16;5.00;;;2.43;;
3417;SDS011;68007;51.312;12.372;2024-02-21T12:15:47;5.43;;;2.37;;
3417;SDS011;68007;51.312;12.372;2024-02-21T12:18:16;4.63;;;2.50;;
3417;SDS011;68007;51.312;12.372;2024-02-21T12:20:44;3.40;;;2.10;;
3417;SDS011;68007;51.312;12.372;2024-02-21T12:23:15;4.43;;;2.43;;
3417;SDS011;68007;51.312;12.372;2024-02-21T12:25:45;3.30;;;2.10;;
3417;SDS011;68007;51.312;12.372;2024-02-21T12:28:12;5.60;;;2.97;;
3417;SDS011;68007;51.312;12.372;2024-02-21T12:30:40;5.83;;;2.30;;
3417;SDS011;68007;51.312;12.372;2024-02-21T12:33:08;4.37;;;2.33;;
3417;SDS011;68007;51.312;12.372;2024-02-21T12:35:37;8.60;;;3.10;;
3417;SDS011;68007;51.312;12.372;2024-02-21T12:38:05;6.57;;;2.70;;
3417;SDS011;68007;51.312;12.372;2024-02-21T12:40:32;6.47;;;2.60;;
3417;SDS011;68007;51.312;12.372;2024-02-21T12:43:00;5.70;;;2.90;;
3417;SDS011;68007;51.312;12.372;2024-02-21T12:45:28;4.67;;;2.50;;
3417;SDS011;68007;51.312;12.372;2024-02-21T12:47:56;4.90;;;2.40;;
3417;SDS011;68007;51.312;12.372;2024-02-21T12:50:23;6.33;;;2.50;;
3417;SDS011;68007;51.312;12.372;2024-02-21T12:52:52;6.20;;;2.33;;
3417;SDS011;68007;51.312;12.372;2024-02-21T12:55:20;5.23;;;2.30;;
3417;SDS011;68007;51.312;12.372;2024-02-21T12:57:47;8.70;;;3.40;;
3417;SDS011;68007;51.312;12.372;2024-02-21T13:00:15;11.13;;;2.90;;
3417;SDS011;68007;51.312;12.372;2024-02-21T13:02:43;4.70;;;2.43;;
3417;SDS011;68007;51.312;12.372;2024-02-21T13:05:12;5.53;;;2.63;;
3417;SDS011;68007;51.312;12.372;2024-02-21T13:07:39;5.70;;;2.70;;
3417;SDS011;68007;51.312;12.372;2024-02-21T13:10:08;10.83;;;2.63;;
3417;SDS011;68007;51.312;12.372;2024-02-21T13:12:36;6.00;;;2.80;;
3417;SDS011;68007;51.312;12.372;2024-02-21T13:15:04;5.97;;;2.60;;
3417;SDS011;68007;51.312;12.372;2024-02-21T13:17:32;7.20;;;2.73;;
3417;SDS011;68007;51.312;12.372;2024-02-21T13:20:00;8.70;;;2.80;;
3417;SDS011;68007;51.312;12.372;2024-02-21T13:22:28;4.90;;;2.33;;
3417;SDS011;68007;51.312;12.372;2024-02-21T13:24:56;4.20;;;2.50;;
3417;SDS011;68007;51.312;12.372;2024-02-21T13:27:25;7.10;;;2.43;;
3417;SDS011;68007;51.312;12.372;2024-02-21T13:29:52;4.93;;;2.63;;
3417;SDS011;68007;51.312;12.372;2024-02-21T13:32:19;7.63;;;2.70;;
3417;SDS011;68007;51.312;12.372;2024-02-21T13:34:47;3.80;;;2.10;;
3417;SDS011;68007;51.312;12.372;2024-02-21T13:37:15;5.07;;;2.10;;
3417;SDS011;68007;51.312;12.372;2024-02-21T13:39:43;3.03;;;2.00;;
3417;SDS011;68007;51.312;12.372;2024-02-21T13:42:10;6.53;;;2.20;;
3417;SDS011;68007;51.312;12.372;2024-02-21T13:44:39;7.70;;;3.00;;
3417;SDS011;68007;51.312;12.372;2024-02-21T13:47:07;3.60;;;2.10;;
3417;SDS011;68007;51.312;12.372;2024-02-21T13:49:35;6.30;;;2.60;;
3417;SDS011;68007;51.312;12.372;2024-02-21T13:52:05;6.87;;;2.47;;
3417;SDS011;68007;51.312;12.372;2024-02-21T13:54:32;6.07;;;1.90;;
3417;SDS011;68007;51.312;12.372;2024-02-21T13:57:00;4.27;;;2.20;;
3417;SDS011;68007;51.312;12.372;2024-02-21T13:59:28;4.33;;;2.10;;
3417;SDS011;68007;51.312;12.372;2024-02-21T14:01:57;5.27;;;2.03;;
3417;SDS011;68007;51.312;12.372;2024-02-21T14:04:24;6.03;;;2.50;;
3417;SDS011;68007;51.312;12.372;2024-02-21T14:06:53;8.57;;;2.03;;
3417;SDS011;68007;51.312;12.372;2024-02-21T14:09:20;5.17;;;2.30;;
3417;SDS011;68007;51.312;12.372;2024-02-21T14:11:48;4.67;;;2.10;;
3417;SDS011;68007;51.312;12.372;2024-02-21T14:14:15;7.53;;;3.50;;
3417;SDS011;68007;51.312;12.372;2024-02-21T14:16:43;4.97;;;2.60;;
3417;SDS011;68007;51.312;12.372;2024-02-21T14:19:14;4.57;;;2.63;;
3417;SDS011;68007;51.312;12.372;2024-02-21T14:21:43;8.87;;;2.57;;
3417;SDS011;68007;51.312;12.372;2024-02-21T14:24:11;5.10;;;2.17;;
3417;SDS011;68007;51.312;12.372;2024-02-21T14:26:38;6.57;;;2.20;;
3417;SDS011;68007;51.312;12.372;2024-02-21T14:29:07;3.73;;;1.80;;
3417;SDS011;68007;51.312;12.372;2024-02-21T14:31:34;5.93;;;2.27;;
3417;SDS011;68007;51.312;12.372;2024-02-21T14:34:02;5.37;;;2.00;;
3417;SDS011;68007;51.312;12.372;2024-02-21T14:36:30;5.63;;;1.90;;
3417;SDS011;68007;51.312;12.372;2024-02-21T14:38:58;13.80;;;4.30;;
3417;SDS011;68007;51.312;12.372;2024-02-21T14:41:26;5.03;;;2.10;;
3417;SDS011;68007;51.312;12.372;2024-02-21T14:43:54;4.00;;;2.30;;
3417;SDS011;68007;51.312;12.372;2024-02-21T14:46:21;6.90;;;2.10;;
3417;SDS011;68007;51.312;12.372;2024-02-21T14:48:49;8.03;;;2.63;;